createdAt,value
2018-02-19T00:00:57.561Z,35.20
2018-02-19T00:01:57.523Z,37.80
2018-02-19T00:02:57.517Z,35.30
2018-02-19T00:03:57.498Z,37.60
2018-02-19T00:04:57.488Z,38.90
2018-02-19T00:05:57.481Z,37.20
2018-02-19T00:06:57.463Z,37.60
2018-02-19T00:07:57.447Z,39.20
2018-02-19T00:08:57.436Z,37.10
2018-02-19T00:09:57.444Z,39.40
2018-02-19T00:10:57.407Z,36.70
2018-02-19T00:11:57.422Z,40.20
2018-02-19T00:12:57.382Z,37.60
2018-02-19T00:13:57.369Z,33.90
2018-02-19T00:14:57.355Z,39.70
2018-02-19T00:15:57.339Z,36.10
2018-02-19T00:16:57.338Z,40.10
2018-02-19T00:17:57.325Z,40.40
2018-02-19T00:18:57.315Z,36.30
2018-02-19T00:19:57.295Z,34.60
2018-02-19T00:20:57.281Z,34.40
2018-02-19T00:21:57.268Z,36.40
2018-02-19T00:22:57.254Z,34.50
2018-02-19T00:23:57.242Z,36.60
2018-02-19T00:24:57.247Z,33.80
2018-02-19T00:25:57.227Z,37.60
2018-02-19T00:26:57.205Z,37.20
2018-02-19T00:27:57.194Z,38.30
2018-02-19T00:28:57.176Z,35.40
2018-02-19T00:29:57.164Z,37.10
2018-02-19T00:30:57.155Z,37.90
2018-02-19T00:31:57.157Z,39.90
2018-02-19T00:32:57.155Z,34.60
2018-02-19T00:33:57.113Z,36.70
2018-02-19T00:34:57.102Z,37.20
2018-02-19T00:35:57.093Z,37.30
2018-02-19T00:36:57.078Z,34.40
2018-02-19T00:37:57.067Z,37.60
2018-02-19T00:38:57.049Z,38.80
2018-02-19T00:39:57.039Z,38.40
2018-02-19T00:40:57.021Z,36.40
2018-02-19T00:41:57.012Z,37.30
2018-02-19T00:42:56.998Z,38.80
2018-02-19T00:43:56.994Z,37.80
2018-02-19T00:44:56.981Z,37.20
2018-02-19T00:45:56.960Z,36.50
2018-02-19T00:46:56.950Z,33.70
2018-02-19T00:47:56.937Z,38.10
2018-02-19T00:48:56.946Z,37.60
2018-02-19T00:49:56.929Z,35.60
2018-02-19T00:50:56.906Z,39.60
2018-02-19T00:51:56.896Z,42.00
2018-02-19T00:52:56.871Z,38.10
2018-02-19T00:53:56.860Z,40.40
2018-02-19T00:54:56.867Z,39.90
2018-02-19T00:55:56.834Z,36.30
2018-02-19T00:56:56.818Z,41.60
2018-02-19T00:57:56.804Z,37.80
2018-02-19T00:58:56.810Z,41.80
2018-02-19T00:59:56.784Z,39.50
2018-02-19T01:00:56.784Z,39.90
2018-02-19T01:01:56.752Z,41.00
2018-02-19T01:02:56.755Z,39.00
2018-02-19T01:03:56.736Z,38.80
2018-02-19T01:04:56.719Z,42.00
2018-02-19T01:05:56.714Z,36.70
2018-02-19T01:06:56.702Z,38.60
2018-02-19T01:07:56.683Z,39.80
2018-02-19T01:08:56.678Z,37.40
2018-02-19T01:09:56.652Z,36.30
2018-02-19T01:10:56.655Z,40.60
2018-02-19T01:11:56.648Z,42.10
2018-02-19T01:12:56.622Z,36.60
2018-02-19T01:13:56.628Z,42.80
2018-02-19T01:14:56.594Z,41.50
2018-02-19T01:15:56.580Z,40.90
2018-02-19T01:16:56.568Z,38.70
2018-02-19T01:17:56.552Z,43.00
2018-02-19T01:18:56.544Z,43.40
2018-02-19T01:19:56.530Z,41.00
2018-02-19T01:20:56.517Z,38.70
2018-02-19T01:21:56.508Z,39.40
2018-02-19T01:22:56.489Z,35.30
2018-02-19T01:23:56.482Z,36.90
2018-02-19T01:24:56.467Z,36.20
2018-02-19T01:25:56.461Z,41.30
2018-02-19T01:26:56.448Z,37.50
2018-02-19T01:27:56.435Z,37.70
2018-02-19T01:28:56.418Z,38.90
2018-02-19T01:29:56.403Z,39.20
2018-02-19T01:30:56.389Z,38.80
2018-02-19T01:31:56.373Z,37.60
2018-02-19T01:32:56.376Z,36.90
2018-02-19T01:33:56.363Z,40.30
2018-02-19T01:34:56.353Z,42.70
2018-02-19T01:35:56.331Z,39.00
2018-02-19T01:36:56.320Z,39.60
2018-02-19T01:37:56.308Z,38.00
2018-02-19T01:38:56.287Z,39.20
2018-02-19T01:39:56.300Z,40.30
2018-02-19T01:40:56.269Z,40.20
2018-02-19T01:41:56.252Z,40.60
2018-02-19T01:42:56.242Z,39.80
2018-02-19T01:43:56.227Z,41.90
2018-02-19T01:44:56.213Z,42.50
2018-02-19T01:45:56.202Z,37.90
2018-02-19T01:46:56.206Z,43.50
2018-02-19T01:47:56.182Z,39.00
2018-02-19T01:48:56.185Z,39.60
2018-02-19T01:49:56.148Z,39.20
2018-02-19T01:50:56.133Z,39.00
2018-02-19T01:51:56.122Z,39.00
2018-02-19T01:52:56.116Z,38.90
2018-02-19T01:53:56.098Z,38.50
2018-02-19T01:54:56.098Z,40.80
2018-02-19T01:55:56.083Z,41.20
2018-02-19T01:56:56.059Z,39.70
2018-02-19T01:57:56.050Z,40.40
2018-02-19T01:58:56.035Z,41.40
2018-02-19T01:59:56.046Z,42.40
2018-02-19T02:00:56.030Z,38.60
2018-02-19T02:01:55.996Z,41.90
2018-02-19T02:02:56.010Z,37.70
2018-02-19T02:03:55.970Z,44.50
2018-02-19T02:04:55.962Z,43.10
2018-02-19T02:05:55.943Z,39.30
2018-02-19T02:06:55.934Z,43.00
2018-02-19T02:07:55.938Z,39.50
2018-02-19T02:08:55.908Z,39.90
2018-02-19T02:09:55.908Z,42.70
2018-02-19T02:10:55.889Z,42.00
2018-02-19T02:11:55.869Z,39.60
2018-02-19T02:12:55.859Z,37.70
2018-02-19T02:13:55.859Z,37.80
2018-02-19T02:14:55.835Z,40.10
2018-02-19T02:15:55.827Z,40.00
2018-02-19T02:16:55.805Z,39.90
2018-02-19T02:17:55.793Z,43.40
2018-02-19T02:18:55.792Z,39.10
2018-02-19T02:19:55.786Z,41.90
2018-02-19T02:20:55.774Z,37.40
2018-02-19T02:21:55.744Z,39.70
2018-02-19T02:22:55.728Z,40.10
2018-02-19T02:23:55.720Z,41.90
2018-02-19T02:24:55.701Z,41.00
2018-02-19T02:25:55.690Z,38.30
2018-02-19T02:26:55.687Z,38.70
2018-02-19T02:27:55.663Z,42.90
2018-02-19T02:28:55.676Z,41.00
2018-02-19T02:29:55.651Z,38.30
2018-02-19T02:30:55.628Z,46.60
2018-02-19T02:31:55.614Z,43.80
2018-02-19T02:32:55.597Z,37.20
2018-02-19T02:33:55.589Z,37.40
2018-02-19T02:34:55.598Z,39.30
2018-02-19T02:35:55.558Z,39.30
2018-02-19T02:36:55.581Z,41.60
2018-02-19T02:37:55.533Z,40.60
2018-02-19T02:38:55.536Z,41.80
2018-02-19T02:39:55.511Z,39.70
2018-02-19T02:40:55.495Z,39.40
2018-02-19T02:41:55.511Z,41.40
2018-02-19T02:42:55.475Z,38.50
2018-02-19T02:43:55.455Z,40.80
2018-02-19T02:44:55.453Z,39.90
2018-02-19T02:45:55.436Z,38.00
2018-02-19T02:46:55.448Z,40.80
2018-02-19T02:47:55.412Z,37.00
2018-02-19T02:48:55.389Z,42.40
2018-02-19T02:49:55.395Z,41.60
2018-02-19T02:50:55.408Z,42.60
2018-02-19T02:51:55.366Z,42.60
2018-02-19T02:52:55.383Z,39.90
2018-02-19T02:53:55.340Z,42.70
2018-02-19T02:54:55.315Z,42.30
2018-02-19T02:55:55.328Z,41.90
2018-02-19T02:56:55.291Z,41.20
2018-02-19T02:57:55.280Z,40.00
2018-02-19T02:58:55.270Z,36.70
2018-02-19T02:59:55.251Z,42.40
2018-02-19T03:00:55.239Z,40.60
2018-02-19T03:01:55.223Z,37.60
2018-02-19T03:02:55.232Z,40.20
2018-02-19T03:03:55.197Z,40.00
2018-02-19T03:04:55.194Z,39.70
2018-02-19T03:05:55.181Z,40.60
2018-02-19T03:06:55.164Z,40.90
2018-02-19T03:07:55.149Z,41.20
2018-02-19T03:08:55.134Z,39.60
2018-02-19T03:09:55.122Z,37.90
2018-02-19T03:10:55.115Z,40.10
2018-02-19T03:11:55.093Z,42.90
2018-02-19T03:12:55.094Z,41.00
2018-02-19T03:13:55.074Z,40.10
2018-02-19T03:14:55.059Z,39.30
2018-02-19T03:15:55.042Z,42.60
2018-02-19T03:16:55.035Z,41.90
2018-02-19T03:17:55.021Z,39.00
2018-02-19T03:18:55.009Z,38.80
2018-02-19T03:19:54.991Z,42.70
2018-02-19T03:20:54.979Z,44.70
2018-02-19T03:21:54.972Z,40.50
2018-02-19T03:22:54.989Z,41.70
2018-02-19T03:23:54.940Z,41.40
2018-02-19T03:24:54.931Z,44.20
2018-02-19T03:25:54.936Z,42.60
2018-02-19T03:26:54.908Z,43.10
2018-02-19T03:27:54.892Z,42.80
2018-02-19T03:28:54.879Z,45.50
2018-02-19T03:29:54.862Z,42.70
2018-02-19T03:30:54.857Z,43.80
2018-02-19T03:31:54.854Z,42.80
2018-02-19T03:32:54.828Z,45.60
2018-02-19T03:33:54.810Z,43.50
2018-02-19T03:34:54.800Z,46.30
2018-02-19T03:35:54.782Z,41.90
2018-02-19T03:36:54.775Z,48.50
2018-02-19T03:37:54.759Z,43.60
2018-02-19T03:38:54.757Z,41.60
2018-02-19T03:39:54.745Z,41.50
2018-02-19T03:40:54.725Z,47.10
2018-02-19T03:41:54.711Z,41.40
2018-02-19T03:42:54.698Z,46.40
2018-02-19T03:43:54.688Z,45.20
2018-02-19T03:44:54.668Z,43.70
2018-02-19T03:45:54.662Z,44.80
2018-02-19T03:46:54.662Z,45.90
2018-02-19T03:47:54.640Z,46.10
2018-02-19T03:48:54.622Z,44.00
2018-02-19T03:49:54.613Z,48.30
2018-02-19T03:50:54.607Z,45.80
2018-02-19T03:51:54.593Z,44.90
2018-02-19T03:54:27.778Z,45.00
2018-02-19T03:55:27.624Z,45.30
2018-02-19T03:57:21.343Z,43.10
2018-02-19T03:58:21.333Z,47.10
2018-02-19T04:00:14.986Z,49.70
2018-02-19T04:01:14.944Z,47.90
2018-02-19T04:03:09.364Z,47.60
2018-02-19T04:04:09.353Z,45.20
2018-02-19T04:05:09.341Z,45.40
2018-02-19T04:06:09.327Z,46.60
2018-02-19T04:07:09.309Z,44.20
2018-02-19T04:08:09.318Z,47.40
2018-02-19T04:09:09.285Z,45.60
2018-02-19T04:10:09.276Z,45.50
2018-02-19T04:11:09.266Z,48.90
2018-02-19T04:12:09.248Z,47.50
2018-02-19T04:13:09.240Z,48.70
2018-02-19T04:14:09.219Z,44.10
2018-02-19T04:15:09.206Z,46.00
2018-02-19T04:16:09.193Z,55.00
2018-02-19T04:17:09.187Z,46.70
2018-02-19T04:18:09.167Z,44.80
2018-02-19T04:19:09.153Z,48.00
2018-02-19T04:20:09.161Z,46.90
2018-02-19T04:21:09.141Z,49.20
2018-02-19T04:22:09.132Z,48.40
2018-02-19T04:23:09.142Z,45.10
2018-02-19T04:24:09.090Z,48.20
2018-02-19T04:25:09.084Z,45.50
2018-02-19T04:26:09.068Z,48.50
2018-02-19T04:27:09.055Z,49.60
2018-02-19T04:28:09.034Z,45.60
2018-02-19T04:29:09.019Z,45.60
2018-02-19T04:30:09.019Z,48.10
2018-02-19T04:31:09.009Z,46.10
2018-02-19T04:32:08.989Z,50.50
2018-02-19T04:33:08.967Z,47.90
2018-02-19T04:34:08.955Z,47.00
2018-02-19T04:35:08.951Z,46.70
2018-02-19T04:36:08.942Z,45.40
2018-02-19T04:37:08.921Z,48.70
2018-02-19T04:38:08.904Z,47.20
2018-02-19T04:39:08.889Z,44.10
2018-02-19T04:40:08.880Z,43.10
2018-02-19T04:41:08.876Z,46.70
2018-02-19T04:42:08.856Z,44.30
2018-02-19T04:43:08.841Z,45.80
2018-02-19T04:44:08.825Z,46.20
2018-02-19T04:45:08.814Z,46.10
2018-02-19T04:46:08.803Z,44.70
2018-02-19T04:47:08.790Z,45.00
2018-02-19T04:48:08.775Z,48.70
2018-02-19T04:49:08.773Z,45.70
2018-02-19T04:50:08.747Z,49.40
2018-02-19T04:51:08.739Z,43.70
2018-02-19T04:52:08.723Z,46.90
2018-02-19T04:53:08.712Z,46.90
2018-02-19T04:54:08.699Z,44.50
2018-02-19T04:55:08.680Z,45.20
2018-02-19T04:56:08.675Z,45.20
2018-02-19T04:57:08.655Z,45.30
2018-02-19T04:58:08.644Z,46.10
2018-02-19T04:59:08.631Z,47.80
2018-02-19T05:00:08.622Z,45.90
2018-02-19T05:01:08.611Z,43.20
2018-02-19T05:02:08.594Z,46.30
2018-02-19T05:03:08.577Z,46.80
2018-02-19T05:04:08.568Z,45.80
2018-02-19T05:05:08.571Z,47.80
2018-02-19T05:06:08.550Z,48.90
2018-02-19T05:07:08.527Z,47.40
2018-02-19T05:08:08.512Z,45.30
2018-02-19T05:09:08.502Z,49.40
2018-02-19T05:10:08.515Z,48.70
2018-02-19T05:11:08.491Z,49.60
2018-02-19T05:12:08.463Z,50.40
2018-02-19T05:13:08.447Z,48.40
2018-02-19T05:14:08.435Z,47.50
2018-02-19T05:15:08.430Z,50.00
2018-02-19T05:16:08.457Z,49.00
2018-02-19T05:17:08.394Z,48.40
2018-02-19T05:18:08.380Z,45.30
2018-02-19T05:19:08.379Z,49.80
2018-02-19T05:20:08.354Z,50.40
2018-02-19T05:21:08.357Z,46.90
2018-02-19T05:22:08.330Z,46.40
2018-02-19T05:23:08.319Z,56.00
2018-02-19T05:24:08.301Z,48.40
2018-02-19T05:25:08.321Z,51.10
2018-02-19T05:26:08.280Z,52.70
2018-02-19T05:27:08.267Z,47.70
2018-02-19T05:28:08.250Z,48.40
2018-02-19T05:29:08.238Z,50.10
2018-02-19T05:30:08.227Z,48.70
2018-02-19T05:31:08.215Z,48.60
2018-02-19T05:32:08.208Z,48.90
2018-02-19T05:33:08.183Z,50.60
2018-02-19T05:34:08.175Z,50.10
2018-02-19T05:35:08.176Z,50.20
2018-02-19T05:36:08.163Z,49.20
2018-02-19T05:37:08.132Z,50.60
2018-02-19T05:38:08.124Z,50.60
2018-02-19T05:39:08.110Z,46.90
2018-02-19T05:40:08.103Z,54.30
2018-02-19T05:41:08.084Z,47.60
2018-02-19T05:42:08.073Z,47.60
2018-02-19T05:43:08.056Z,47.70
2018-02-19T05:44:08.039Z,48.60
2018-02-19T05:45:08.036Z,51.30
2018-02-19T05:46:08.032Z,52.20
2018-02-19T05:47:08.003Z,51.70
2018-02-19T05:48:07.990Z,48.60
2018-02-19T05:49:07.970Z,48.80
2018-02-19T05:50:07.967Z,55.20
2018-02-19T05:51:07.962Z,48.30
2018-02-19T05:52:07.933Z,51.10
2018-02-19T05:53:07.920Z,51.20
2018-02-19T05:54:07.913Z,49.00
2018-02-19T05:55:07.910Z,47.60
2018-02-19T05:56:07.886Z,49.40
2018-02-19T05:57:07.868Z,49.70
2018-02-19T05:58:07.864Z,50.30
2018-02-19T05:59:07.844Z,46.30
2018-02-19T06:00:07.831Z,49.00
2018-02-19T06:01:07.832Z,49.70
2018-02-19T06:02:07.804Z,53.30
2018-02-19T06:03:07.794Z,47.10
2018-02-19T06:04:07.774Z,52.10
2018-02-19T06:05:07.766Z,52.40
2018-02-19T06:06:07.753Z,54.80
2018-02-19T06:07:07.741Z,51.70
2018-02-19T06:08:07.727Z,50.20
2018-02-19T06:09:07.711Z,48.90
2018-02-19T06:10:07.700Z,50.40
2018-02-19T06:11:07.690Z,48.90
2018-02-19T06:12:07.675Z,52.40
2018-02-19T06:13:07.666Z,48.30
2018-02-19T06:14:07.647Z,49.80
2018-02-19T06:15:07.630Z,49.50
2018-02-19T06:16:07.623Z,51.10
2018-02-19T06:17:07.607Z,51.50
2018-02-19T06:18:07.591Z,52.50
2018-02-19T06:19:07.601Z,48.70
2018-02-19T06:20:07.579Z,52.80
2018-02-19T06:21:07.573Z,46.50
2018-02-19T06:22:07.542Z,49.10
2018-02-19T06:23:07.530Z,52.10
2018-02-19T06:24:07.513Z,47.80
2018-02-19T06:25:07.512Z,47.00
2018-02-19T06:26:07.508Z,49.20
2018-02-19T06:27:07.488Z,47.50
2018-02-19T06:28:07.464Z,47.30
2018-02-19T06:29:07.456Z,48.80
2018-02-19T06:30:07.440Z,46.70
2018-02-19T06:31:07.431Z,46.60
2018-02-19T06:32:07.412Z,50.50
2018-02-19T06:33:07.402Z,47.60
2018-02-19T06:34:07.401Z,48.80
2018-02-19T06:35:07.374Z,48.50
2018-02-19T06:36:07.361Z,48.80
2018-02-19T06:37:07.346Z,49.00
2018-02-19T06:38:07.334Z,50.00
2018-02-19T06:39:07.371Z,49.60
2018-02-19T06:40:07.892Z,53.30
2018-02-19T06:41:07.305Z,51.60
2018-02-19T06:42:07.293Z,50.50
2018-02-19T06:43:07.278Z,53.00
2018-02-19T06:44:07.876Z,50.80
2018-02-19T06:45:07.882Z,50.00
2018-02-19T06:46:07.246Z,50.30
2018-02-19T06:47:07.228Z,51.40
2018-02-19T06:48:07.199Z,56.50
2018-02-19T06:49:07.278Z,52.00
2018-02-19T06:50:07.180Z,53.40
2018-02-19T06:51:07.167Z,49.80
2018-02-19T06:52:07.168Z,50.40
2018-02-19T06:53:07.163Z,54.70
2018-02-19T06:54:07.123Z,53.80
2018-02-19T06:55:07.140Z,52.30
2018-02-19T06:56:07.101Z,52.00
2018-02-19T06:57:07.083Z,54.90
2018-02-19T06:58:07.081Z,54.70
2018-02-19T06:59:07.058Z,56.20
2018-02-19T07:00:07.044Z,53.90
2018-02-19T07:01:07.875Z,52.80
2018-02-19T07:02:07.023Z,53.80
2018-02-19T07:03:07.035Z,52.80
2018-02-19T07:04:06.994Z,52.20
2018-02-19T07:05:06.993Z,54.30
2018-02-19T07:06:06.997Z,55.60
2018-02-19T07:07:06.984Z,51.70
2018-02-19T07:08:06.951Z,53.40
2018-02-19T07:09:06.931Z,49.90
2018-02-19T07:10:06.921Z,52.70
2018-02-19T07:11:06.904Z,53.00
2018-02-19T07:12:06.905Z,47.70
2018-02-19T07:13:06.887Z,52.90
2018-02-19T07:14:06.869Z,51.20
2018-02-19T07:15:06.850Z,55.40
2018-02-19T07:16:06.849Z,52.20
2018-02-19T07:17:06.825Z,51.60
2018-02-19T07:18:06.833Z,53.20
2018-02-19T07:19:06.834Z,56.10
2018-02-19T07:20:06.784Z,48.20
2018-02-19T07:21:06.777Z,51.10
2018-02-19T07:22:06.767Z,48.50
2018-02-19T07:23:06.740Z,53.70
2018-02-19T07:24:06.746Z,49.60
2018-02-19T07:25:06.788Z,54.40
2018-02-19T07:26:06.703Z,51.90
2018-02-19T07:27:06.702Z,52.40
2018-02-19T07:28:06.705Z,48.70
2018-02-19T07:29:06.696Z,53.40
2018-02-19T07:30:06.681Z,50.70
2018-02-19T07:31:06.655Z,52.40
2018-02-19T07:32:06.633Z,52.00
2018-02-19T07:33:06.624Z,53.90
2018-02-19T07:34:06.607Z,53.30
2018-02-19T07:35:06.590Z,55.60
2018-02-19T07:36:06.574Z,54.10
2018-02-19T07:37:06.571Z,55.30
2018-02-19T07:38:06.593Z,54.10
2018-02-19T07:39:06.560Z,50.30
2018-02-19T07:40:06.545Z,52.20
2018-02-19T07:41:06.510Z,54.10
2018-02-19T07:42:06.503Z,51.50
2018-02-19T07:43:06.495Z,53.40
2018-02-19T07:44:06.480Z,52.90
2018-02-19T07:45:06.455Z,50.00
2018-02-19T07:46:06.443Z,52.20
2018-02-19T07:47:06.433Z,55.50
2018-02-19T07:48:06.419Z,54.40
2018-02-19T07:49:06.407Z,48.80
2018-02-19T07:50:06.392Z,55.80
2018-02-19T07:51:06.383Z,50.20
2018-02-19T07:52:06.367Z,52.10
2018-02-19T07:53:06.395Z,49.80
2018-02-19T07:54:06.345Z,51.50
2018-02-19T07:55:06.331Z,51.70
2018-02-19T07:56:06.330Z,53.80
2018-02-19T07:57:06.308Z,49.90
2018-02-19T07:58:06.303Z,51.40
2018-02-19T07:59:06.329Z,53.20
2018-02-19T08:00:06.273Z,49.00
2018-02-19T08:01:06.260Z,48.90
2018-02-19T08:02:06.243Z,50.00
2018-02-19T08:03:06.230Z,50.50
2018-02-19T08:04:06.221Z,52.00
2018-02-19T08:05:06.217Z,47.30
2018-02-19T08:06:06.190Z,49.60
2018-02-19T08:07:06.184Z,54.80
2018-02-19T08:08:06.166Z,49.70
2018-02-19T08:09:06.152Z,46.10
2018-02-19T08:10:06.798Z,51.80
2018-02-19T08:11:06.144Z,52.50
2018-02-19T08:12:06.120Z,46.30
2018-02-19T08:13:06.108Z,52.50
2018-02-19T08:14:06.095Z,47.10
2018-02-19T08:15:06.082Z,49.40
2018-02-19T08:16:06.076Z,45.00
2018-02-19T08:17:06.055Z,51.70
2018-02-19T08:18:06.046Z,47.40
2018-02-19T08:19:06.030Z,46.30
2018-02-19T08:20:06.025Z,46.00
2018-02-19T08:21:06.008Z,46.10
2018-02-19T08:22:05.996Z,48.00
2018-02-19T08:23:05.984Z,46.70
2018-02-19T08:24:05.980Z,46.70
2018-02-19T08:25:05.958Z,48.00
2018-02-19T08:26:05.944Z,47.40
2018-02-19T08:27:05.939Z,44.90
2018-02-19T08:28:05.928Z,46.20
2018-02-19T08:29:05.915Z,49.00
2018-02-19T08:30:05.902Z,45.70
2018-02-19T08:31:05.892Z,47.70
2018-02-19T08:32:05.877Z,42.80
2018-02-19T08:33:05.871Z,44.20
2018-02-19T08:34:05.856Z,46.40
2018-02-19T08:35:05.855Z,43.60
2018-02-19T08:36:05.831Z,43.10
2018-02-19T08:37:05.820Z,40.40
2018-02-19T08:38:05.810Z,43.50
2018-02-19T08:39:05.802Z,43.60
2018-02-19T08:40:05.790Z,44.10
2018-02-19T08:41:05.774Z,41.80
2018-02-19T08:42:05.763Z,43.10
2018-02-19T08:43:05.752Z,42.80
2018-02-19T08:44:05.738Z,40.10
2018-02-19T08:45:05.739Z,39.40
2018-02-19T08:46:05.718Z,41.50
2018-02-19T08:47:05.708Z,41.00
2018-02-19T08:48:05.706Z,43.50
2018-02-19T08:49:05.713Z,39.90
2018-02-19T08:50:05.672Z,42.70
2018-02-19T08:51:05.660Z,37.30
2018-02-19T08:52:05.650Z,42.20
2018-02-19T08:53:05.690Z,39.00
2018-02-19T08:54:05.648Z,39.00
2018-02-19T08:55:05.619Z,40.50
2018-02-19T08:56:05.603Z,38.70
2018-02-19T08:57:05.591Z,38.70
2018-02-19T08:58:05.587Z,39.10
2018-02-19T08:59:05.571Z,39.90
2018-02-19T09:00:05.560Z,38.00
2018-02-19T09:01:05.555Z,39.80
2018-02-19T09:02:05.540Z,38.90
2018-02-19T09:03:05.531Z,36.90
2018-02-19T09:04:05.518Z,38.90
2018-02-19T09:05:05.506Z,42.40
2018-02-19T09:06:05.527Z,38.60
2018-02-19T09:07:05.489Z,38.10
2018-02-19T09:08:05.480Z,41.60
2018-02-19T09:09:05.466Z,39.80
2018-02-19T09:10:05.449Z,40.10
2018-02-19T09:11:05.444Z,41.60
2018-02-19T09:12:05.432Z,39.20
2018-02-19T09:13:05.423Z,41.80
2018-02-19T09:14:05.412Z,42.50
2018-02-19T09:15:05.406Z,43.50
2018-02-19T09:16:05.392Z,41.80
2018-02-19T09:17:05.381Z,44.20
2018-02-19T09:18:05.381Z,39.60
2018-02-19T09:19:05.373Z,41.40
2018-02-19T09:20:05.352Z,42.30
2018-02-19T09:21:05.348Z,39.50
2018-02-19T09:22:05.329Z,38.00
2018-02-19T09:23:05.323Z,39.30
2018-02-19T09:24:05.314Z,38.90
2018-02-19T09:25:05.293Z,38.80
2018-02-19T09:26:05.287Z,37.80
2018-02-19T09:27:05.279Z,37.70
2018-02-19T09:28:05.266Z,40.60
2018-02-19T09:29:05.258Z,35.60
2018-02-19T09:30:05.251Z,37.00
2018-02-19T09:31:05.236Z,40.90
2018-02-19T09:32:05.229Z,41.20
2018-02-19T09:33:05.213Z,38.60
2018-02-19T09:34:05.206Z,39.00
2018-02-19T09:35:05.207Z,39.60
2018-02-19T09:36:05.183Z,39.60
2018-02-19T09:37:05.174Z,38.20
2018-02-19T09:38:05.165Z,37.10
2018-02-19T09:39:05.150Z,37.30
2018-02-19T09:40:05.143Z,40.40
2018-02-19T09:41:05.138Z,36.60
2018-02-19T09:42:05.131Z,34.30
2018-02-19T09:43:05.124Z,39.60
2018-02-19T09:44:05.112Z,35.90
2018-02-19T09:45:05.091Z,34.60
2018-02-19T09:46:05.097Z,35.50
2018-02-19T09:47:05.075Z,36.10
2018-02-19T09:48:05.074Z,32.60
2018-02-19T09:49:05.060Z,33.60
2018-02-19T09:50:05.065Z,32.70
2018-02-19T09:51:05.044Z,34.00
2018-02-19T09:52:05.034Z,35.50
2018-02-19T09:53:05.022Z,33.50
2018-02-19T09:54:05.013Z,33.50
2018-02-19T09:55:05.051Z,35.10
2018-02-19T09:56:05.006Z,33.50
2018-02-19T09:57:05.042Z,33.20
2018-02-19T09:58:04.995Z,33.10
2018-02-19T09:59:04.988Z,32.70
2018-02-19T10:00:04.975Z,32.40
2018-02-19T10:01:04.965Z,31.70
2018-02-19T10:02:04.960Z,32.10
2018-02-19T10:03:04.946Z,31.70
2018-02-19T10:04:04.948Z,29.40
2018-02-19T10:05:04.933Z,29.30
2018-02-19T10:06:04.929Z,31.70
2018-02-19T10:07:04.929Z,34.60
2018-02-19T10:08:04.914Z,30.30
2018-02-19T10:09:04.905Z,31.70
2018-02-19T10:10:04.933Z,32.50
2018-02-19T10:11:04.896Z,29.50
2018-02-19T10:12:04.920Z,31.90
2018-02-19T10:13:04.878Z,29.90
2018-02-19T10:14:04.870Z,29.90
2018-02-19T10:15:04.871Z,29.60
2018-02-19T10:16:04.864Z,29.20
2018-02-19T10:17:04.860Z,32.60
2018-02-19T10:18:04.848Z,32.60
2018-02-19T10:19:04.844Z,30.50
2018-02-19T10:20:04.830Z,32.00
2018-02-19T10:21:04.830Z,31.20
2018-02-19T10:22:04.830Z,31.50
2018-02-19T10:23:04.833Z,31.80
2018-02-19T10:24:04.814Z,32.00
2018-02-19T10:25:04.794Z,32.90
2018-02-19T10:26:04.789Z,29.80
2018-02-19T10:27:04.781Z,31.60
2018-02-19T10:28:04.785Z,33.20
2018-02-19T10:29:04.792Z,31.90
2018-02-19T10:30:04.785Z,32.20
2018-02-19T10:31:04.754Z,33.40
2018-02-19T10:32:04.745Z,30.80
2018-02-19T10:33:04.739Z,33.20
2018-02-19T10:34:04.730Z,30.70
2018-02-19T10:35:04.723Z,31.10
2018-02-19T10:36:04.729Z,29.90
2018-02-19T10:37:04.712Z,30.60
2018-02-19T10:38:04.717Z,33.90
2018-02-19T10:39:04.694Z,32.00
2018-02-19T10:40:04.689Z,32.20
2018-02-19T10:41:04.680Z,32.30
2018-02-19T10:42:04.672Z,32.80
2018-02-19T10:43:04.675Z,30.40
2018-02-19T10:44:04.661Z,30.40
2018-02-19T10:45:04.647Z,30.60
2018-02-19T10:46:04.644Z,32.70
2018-02-19T10:47:04.633Z,32.60
2018-02-19T10:48:04.626Z,31.70
2018-02-19T10:49:04.622Z,30.40
2018-02-19T10:50:04.624Z,33.80
2018-02-19T10:51:04.607Z,31.00
2018-02-19T10:52:04.623Z,30.10
2018-02-19T10:53:04.594Z,33.50
2018-02-19T10:54:04.626Z,32.90
2018-02-19T10:55:04.576Z,30.10
2018-02-19T10:56:04.596Z,32.80
2018-02-19T10:57:04.568Z,30.50
2018-02-19T10:58:04.555Z,30.60
2018-02-19T10:59:04.549Z,32.10
2018-02-19T11:00:04.590Z,29.70
2018-02-19T11:01:04.537Z,30.90
2018-02-19T11:02:04.523Z,29.90
2018-02-19T11:03:04.517Z,31.80
2018-02-19T11:04:04.555Z,30.20
2018-02-19T11:05:04.502Z,33.60
2018-02-19T11:06:04.506Z,32.00
2018-02-19T11:07:04.498Z,32.40
2018-02-19T11:08:04.475Z,31.80
2018-02-19T11:09:04.470Z,31.90
2018-02-19T11:10:04.462Z,31.10
2018-02-19T11:11:04.507Z,32.90
2018-02-19T11:12:04.448Z,32.90
2018-02-19T11:13:04.442Z,33.40
2018-02-19T11:14:04.436Z,32.50
2018-02-19T11:15:04.427Z,35.40
2018-02-19T11:16:04.422Z,34.20
2018-02-19T11:17:04.437Z,34.40
2018-02-19T11:18:04.412Z,31.70
2018-02-19T11:19:04.392Z,33.70
2018-02-19T11:20:04.393Z,36.10
2018-02-19T11:21:04.379Z,33.60
2018-02-19T11:22:04.382Z,34.70
2018-02-19T11:23:04.375Z,34.80
2018-02-19T11:24:04.355Z,35.50
2018-02-19T11:25:04.351Z,36.20
2018-02-19T11:26:04.344Z,35.50
2018-02-19T11:27:04.338Z,34.40
2018-02-19T11:28:04.338Z,35.00
2018-02-19T11:29:04.318Z,34.60
2018-02-19T11:30:04.319Z,33.40
2018-02-19T11:31:04.306Z,34.30
2018-02-19T11:32:04.300Z,34.40
2018-02-19T11:33:04.289Z,35.40
2018-02-19T11:34:04.287Z,37.60
2018-02-19T11:35:04.274Z,33.90
2018-02-19T11:36:04.290Z,32.20
2018-02-19T11:37:04.265Z,34.10
2018-02-19T11:38:04.275Z,34.60
2018-02-19T11:39:04.241Z,34.60
2018-02-19T11:40:04.257Z,33.40
2018-02-19T11:41:04.258Z,33.70
2018-02-19T11:42:04.224Z,32.40
2018-02-19T11:43:04.209Z,31.60
2018-02-19T11:44:04.203Z,36.80
2018-02-19T11:45:04.197Z,33.40
2018-02-19T11:46:04.191Z,34.10
2018-02-19T11:47:04.190Z,35.40
2018-02-19T11:48:04.174Z,35.60
2018-02-19T11:49:04.178Z,35.30
2018-02-19T11:50:04.157Z,37.30
2018-02-19T11:51:04.179Z,35.80
2018-02-19T11:52:04.164Z,35.30
2018-02-19T11:53:04.186Z,35.20
2018-02-19T11:54:04.127Z,36.30
2018-02-19T11:55:04.121Z,35.20
2018-02-19T11:56:04.112Z,35.00
2018-02-19T11:57:04.110Z,33.50
2018-02-19T11:58:04.114Z,34.90
2018-02-19T11:59:04.095Z,39.20
2018-02-19T12:00:04.092Z,37.20
2018-02-19T12:01:04.118Z,34.60
2018-02-19T12:02:04.084Z,32.50
2018-02-19T12:03:04.061Z,34.80
2018-02-19T12:04:04.049Z,34.10
2018-02-19T12:05:04.063Z,34.10
2018-02-19T12:06:04.069Z,34.50
2018-02-19T12:07:04.026Z,37.00
2018-02-19T12:08:04.024Z,35.10
2018-02-19T12:09:04.088Z,33.00
2018-02-19T12:10:04.019Z,33.00
2018-02-19T12:11:04.009Z,36.90
2018-02-19T12:12:03.992Z,36.00
2018-02-19T12:13:04.006Z,33.90
2018-02-19T12:14:03.993Z,33.10
2018-02-19T12:15:03.980Z,31.80
2018-02-19T12:16:03.972Z,33.10
2018-02-19T12:17:03.959Z,33.30
2018-02-19T12:18:03.982Z,35.40
2018-02-19T12:19:03.936Z,32.00
2018-02-19T12:20:03.930Z,32.40
2018-02-19T12:21:03.938Z,33.40
2018-02-19T12:22:03.926Z,34.40
2018-02-19T12:23:03.934Z,33.40
2018-02-19T12:24:03.902Z,31.90
2018-02-19T12:25:03.902Z,33.30
2018-02-19T12:26:03.893Z,31.70
2018-02-19T12:27:03.883Z,32.20
2018-02-19T12:28:03.917Z,32.20
2018-02-19T12:29:03.864Z,31.30
2018-02-19T12:30:03.869Z,33.10
2018-02-19T12:31:03.882Z,32.30
2018-02-19T12:32:03.861Z,33.10
2018-02-19T12:33:03.848Z,31.00
2018-02-19T12:34:03.853Z,30.80
2018-02-19T12:35:03.825Z,32.00
2018-02-19T12:36:03.819Z,33.70
2018-02-19T12:37:03.806Z,33.50
2018-02-19T12:38:03.807Z,30.20
2018-02-19T12:39:03.816Z,31.60
2018-02-19T12:40:03.810Z,36.00
2018-02-19T12:41:03.785Z,29.10
2018-02-19T12:42:03.778Z,33.60
2018-02-19T12:43:03.768Z,28.80
2018-02-19T12:44:03.774Z,28.00
2018-02-19T12:45:03.754Z,29.70
2018-02-19T12:46:03.744Z,28.80
2018-02-19T12:47:03.745Z,28.70
2018-02-19T12:48:03.735Z,31.80
2018-02-19T12:49:03.724Z,30.90
2018-02-19T12:50:03.715Z,28.70
2018-02-19T12:51:03.711Z,28.90
2018-02-19T12:52:03.706Z,29.10
2018-02-19T12:53:03.695Z,31.90
2018-02-19T12:54:03.700Z,31.10
2018-02-19T12:55:03.686Z,30.00
2018-02-19T12:56:03.674Z,32.50
2018-02-19T12:57:03.669Z,31.20